sensor_id;sensor_type;location;lat;lon;timestamp;pressure;altitude;pressure_sealevel;temperature;humidity
9225;BME280;4647;48.072;11.616;2023-02-15T00:00:17;96586.88;;;-1.62;89.20
9225;BME280;4647;48.072;11.616;2023-02-15T00:02:45;96565.94;;;-1.77;89.46
9225;BME280;4647;48.072;11.616;2023-02-15T00:05:14;96577.66;;;-1.78;89.56
9225;BME280;4647;48.072;11.616;2023-02-15T00:07:42;96581.25;;;-1.60;89.52
9225;BME280;4647;48.072;11.616;2023-02-15T00:10:11;96578.00;;;-1.57;88.95
9225;BME280;4647;48.072;11.616;2023-02-15T00:12:40;96571.19;;;-1.86;89.74
9225;BME280;4647;48.072;11.616;2023-02-15T00:15:11;96577.03;;;-1.75;89.61
9225;BME280;4647;48.072;11.616;2023-02-15T00:17:39;96573.59;;;-1.62;89.11
9225;BME280;4647;48.072;11.616;2023-02-15T00:20:08;96569.16;;;-1.66;89.13
9225;BME280;4647;48.072;11.616;2023-02-15T00:22:37;96569.25;;;-1.71;89.22
9225;BME280;4647;48.072;11.616;2023-02-15T00:25:06;96559.84;;;-1.77;89.24
9225;BME280;4647;48.072;11.616;2023-02-15T00:27:35;96564.44;;;-1.69;89.28
9225;BME280;4647;48.072;11.616;2023-02-15T00:30:04;96549.97;;;-2.27;90.04
9225;BME280;4647;48.072;11.616;2023-02-15T00:32:36;96564.00;;;-1.85;89.87
9225;BME280;4647;48.072;11.616;2023-02-15T00:35:05;96561.84;;;-1.97;90.00
9225;BME280;4647;48.072;11.616;2023-02-15T00:37:34;96565.59;;;-2.11;90.31
9225;BME280;4647;48.072;11.616;2023-02-15T00:40:04;96560.97;;;-2.20;90.37
9225;BME280;4647;48.072;11.616;2023-02-15T00:42:32;96569.63;;;-2.14;90.36
9225;BME280;4647;48.072;11.616;2023-02-15T00:45:01;96565.75;;;-1.94;90.04
9225;BME280;4647;48.072;11.616;2023-02-15T00:47:29;96563.59;;;-1.92;89.62
9225;BME280;4647;48.072;11.616;2023-02-15T00:50:00;96533.75;;;-2.11;89.45
9225;BME280;4647;48.072;11.616;2023-02-15T00:52:29;96557.97;;;-1.91;89.41
9225;BME280;4647;48.072;11.616;2023-02-15T00:54:57;96557.28;;;-1.82;89.43
9225;BME280;4647;48.072;11.616;2023-02-15T00:57:26;96557.41;;;-1.88;89.25
9225;BME280;4647;48.072;11.616;2023-02-15T00:59:54;96548.34;;;-1.87;89.62
9225;BME280;4647;48.072;11.616;2023-02-15T01:02:22;96556.31;;;-1.87;89.16
9225;BME280;4647;48.072;11.616;2023-02-15T01:04:51;96556.41;;;-1.92;89.30
9225;BME280;4647;48.072;11.616;2023-02-15T01:07:22;96546.38;;;-1.81;89.56
9225;BME280;4647;48.072;11.616;2023-02-15T01:09:50;96540.97;;;-1.90;89.27
9225;BME280;4647;48.072;11.616;2023-02-15T01:12:19;96536.97;;;-2.01;89.42
9225;BME280;4647;48.072;11.616;2023-02-15T01:14:47;96536.59;;;-2.08;89.39
9225;BME280;4647;48.072;11.616;2023-02-15T01:17:16;96529.59;;;-2.18;89.92
9225;BME280;4647;48.072;11.616;2023-02-15T01:19:44;96526.47;;;-2.20;89.78
9225;BME280;4647;48.072;11.616;2023-02-15T01:22:13;96523.81;;;-2.20;89.97
9225;BME280;4647;48.072;11.616;2023-02-15T01:24:44;96523.50;;;-2.18;90.10
9225;BME280;4647;48.072;11.616;2023-02-15T01:27:12;96523.50;;;-2.04;90.03
9225;BME280;4647;48.072;11.616;2023-02-15T01:29:41;96524.00;;;-2.02;89.95
9225;BME280;4647;48.072;11.616;2023-02-15T01:32:10;96527.25;;;-2.05;89.98
9225;BME280;4647;48.072;11.616;2023-02-15T01:34:38;96520.31;;;-1.93;89.54
9225;BME280;4647;48.072;11.616;2023-02-15T01:37:07;96519.59;;;-2.21;89.75
9225;BME280;4647;48.072;11.616;2023-02-15T01:39:35;96508.16;;;-2.07;89.59
9225;BME280;4647;48.072;11.616;2023-02-15T01:42:09;96513.38;;;-2.02;89.55
9225;BME280;4647;48.072;11.616;2023-02-15T01:44:50;96515.06;;;-2.06;89.44
9225;BME280;4647;48.072;11.616;2023-02-15T01:47:23;96514.16;;;-2.02;89.40
9225;BME280;4647;48.072;11.616;2023-02-15T01:50:00;96517.72;;;-2.20;89.41
9225;BME280;4647;48.072;11.616;2023-02-15T01:52:30;96510.88;;;-2.35;89.73
9225;BME280;4647;48.072;11.616;2023-02-15T01:54:58;96497.50;;;-2.57;90.02
9225;BME280;4647;48.072;11.616;2023-02-15T01:57:30;96476.66;;;-2.64;90.20
9225;BME280;4647;48.072;11.616;2023-02-15T02:00:00;96501.09;;;-2.12;90.01
9225;BME280;4647;48.072;11.616;2023-02-15T02:02:30;96506.06;;;-1.97;89.23
9225;BME280;4647;48.072;11.616;2023-02-15T02:05:00;96496.75;;;-2.08;88.74
9225;BME280;4647;48.072;11.616;2023-02-15T02:07:34;96491.28;;;-2.25;89.10
9225;BME280;4647;48.072;11.616;2023-02-15T02:10:06;96492.66;;;-2.41;89.18
9225;BME280;4647;48.072;11.616;2023-02-15T02:12:42;96472.94;;;-2.63;89.80
9225;BME280;4647;48.072;11.616;2023-02-15T02:15:12;96475.69;;;-2.68;89.98
9225;BME280;4647;48.072;11.616;2023-02-15T02:18:02;96474.31;;;-2.52;89.78
9225;BME280;4647;48.072;11.616;2023-02-15T02:20:51;96473.72;;;-2.49;89.92
9225;BME280;4647;48.072;11.616;2023-02-15T02:23:38;96476.44;;;-2.40;89.68
9225;BME280;4647;48.072;11.616;2023-02-15T02:26:52;96484.28;;;-2.21;89.47
9225;BME280;4647;48.072;11.616;2023-02-15T02:32:54;96482.91;;;-2.19;88.88
9225;BME280;4647;48.072;11.616;2023-02-15T02:35:31;96484.88;;;-2.24;88.49
9225;BME280;4647;48.072;11.616;2023-02-15T02:38:07;96491.50;;;-2.35;88.82
9225;BME280;4647;48.072;11.616;2023-02-15T02:40:46;96488.44;;;-2.42;88.96
9225;BME280;4647;48.072;11.616;2023-02-15T02:43:22;96487.97;;;-2.44;88.85
9225;BME280;4647;48.072;11.616;2023-02-15T02:45:58;96481.28;;;-2.42;88.88
9225;BME280;4647;48.072;11.616;2023-02-15T02:48:32;96476.84;;;-2.47;88.82
9225;BME280;4647;48.072;11.616;2023-02-15T02:51:01;96462.69;;;-2.42;88.93
9225;BME280;4647;48.072;11.616;2023-02-15T02:53:31;96473.31;;;-2.42;88.34
9225;BME280;4647;48.072;11.616;2023-02-15T02:56:05;96461.91;;;-2.42;88.88
9225;BME280;4647;48.072;11.616;2023-02-15T02:58:37;96468.72;;;-2.36;88.63
9225;BME280;4647;48.072;11.616;2023-02-15T03:01:13;96460.34;;;-2.30;88.01
9225;BME280;4647;48.072;11.616;2023-02-15T03:03:48;96460.75;;;-2.36;88.58
9225;BME280;4647;48.072;11.616;2023-02-15T03:06:20;96462.19;;;-2.30;88.09
9225;BME280;4647;48.072;11.616;2023-02-15T03:08:56;96464.44;;;-2.37;88.22
9225;BME280;4647;48.072;11.616;2023-02-15T03:11:26;96467.03;;;-2.46;88.48
9225;BME280;4647;48.072;11.616;2023-02-15T03:13:54;96473.00;;;-2.40;88.45
9225;BME280;4647;48.072;11.616;2023-02-15T03:16:23;96469.75;;;-2.24;88.25
9225;BME280;4647;48.072;11.616;2023-02-15T03:19:01;96473.53;;;-2.52;88.20
9225;BME280;4647;48.072;11.616;2023-02-15T03:21:34;96470.97;;;-2.57;88.66
9225;BME280;4647;48.072;11.616;2023-02-15T03:24:07;96463.78;;;-2.43;88.32
9225;BME280;4647;48.072;11.616;2023-02-15T03:26:38;96465.47;;;-2.61;88.23
9225;BME280;4647;48.072;11.616;2023-02-15T03:29:09;96473.03;;;-2.54;87.93
9225;BME280;4647;48.072;11.616;2023-02-15T03:31:40;96467.88;;;-2.37;87.90
9225;BME280;4647;48.072;11.616;2023-02-15T03:34:14;96468.00;;;-2.28;87.90
9225;BME280;4647;48.072;11.616;2023-02-15T03:36:46;96467.06;;;-2.60;88.76
9225;BME280;4647;48.072;11.616;2023-02-15T03:39:20;96477.03;;;-2.43;88.67
9225;BME280;4647;48.072;11.616;2023-02-15T03:41:56;96465.00;;;-2.76;88.48
9225;BME280;4647;48.072;11.616;2023-02-15T03:44:29;96469.72;;;-2.60;89.21
9225;BME280;4647;48.072;11.616;2023-02-15T03:47:04;96463.69;;;-2.52;88.93
9225;BME280;4647;48.072;11.616;2023-02-15T03:49:42;96464.91;;;-2.58;88.75
9225;BME280;4647;48.072;11.616;2023-02-15T03:52:14;96467.69;;;-2.40;88.32
9225;BME280;4647;48.072;11.616;2023-02-15T03:54:43;96480.28;;;-2.46;88.10
9225;BME280;4647;48.072;11.616;2023-02-15T03:57:17;96482.84;;;-2.41;88.19
9225;BME280;4647;48.072;11.616;2023-02-15T04:00:00;96475.81;;;-2.59;88.14
9225;BME280;4647;48.072;11.616;2023-02-15T04:02:48;96474.09;;;-2.41;88.07
9225;BME280;4647;48.072;11.616;2023-02-15T04:05:21;96472.63;;;-2.34;87.66
9225;BME280;4647;48.072;11.616;2023-02-15T04:07:52;96476.19;;;-2.66;88.01
9225;BME280;4647;48.072;11.616;2023-02-15T04:10:21;96469.41;;;-2.72;88.55
9225;BME280;4647;48.072;11.616;2023-02-15T04:13:02;96470.41;;;-2.82;88.97
9225;BME280;4647;48.072;11.616;2023-02-15T04:15:31;96473.16;;;-2.59;88.60
9225;BME280;4647;48.072;11.616;2023-02-15T04:18:12;96467.81;;;-2.45;87.77
9225;BME280;4647;48.072;11.616;2023-02-15T04:20:46;96471.66;;;-2.52;87.92
9225;BME280;4647;48.072;11.616;2023-02-15T04:23:27;96466.25;;;-2.47;88.04
9225;BME280;4647;48.072;11.616;2023-02-15T04:26:07;96462.41;;;-2.40;88.32
9225;BME280;4647;48.072;11.616;2023-02-15T04:28:36;96466.53;;;-2.34;88.10
9225;BME280;4647;48.072;11.616;2023-02-15T04:31:04;96472.81;;;-2.44;88.21
9225;BME280;4647;48.072;11.616;2023-02-15T04:33:33;96485.31;;;-2.31;88.04
9225;BME280;4647;48.072;11.616;2023-02-15T04:36:05;96466.75;;;-2.58;88.13
9225;BME280;4647;48.072;11.616;2023-02-15T04:38:33;96478.59;;;-2.28;87.81
9225;BME280;4647;48.072;11.616;2023-02-15T04:41:02;96484.56;;;-2.09;87.24
9225;BME280;4647;48.072;11.616;2023-02-15T04:43:30;96481.25;;;-2.28;86.99
9225;BME280;4647;48.072;11.616;2023-02-15T04:45:59;96479.53;;;-2.60;87.04
9225;BME280;4647;48.072;11.616;2023-02-15T04:48:27;96475.47;;;-2.44;87.05
9225;BME280;4647;48.072;11.616;2023-02-15T04:50:56;96474.53;;;-2.75;87.22
9225;BME280;4647;48.072;11.616;2023-02-15T04:53:27;96479.81;;;-2.62;87.10
9225;BME280;4647;48.072;11.616;2023-02-15T04:55:55;96476.06;;;-2.47;86.67
9225;BME280;4647;48.072;11.616;2023-02-15T04:58:24;96474.41;;;-2.84;88.17
9225;BME280;4647;48.072;11.616;2023-02-15T05:00:55;96465.00;;;-2.76;87.86
9225;BME280;4647;48.072;11.616;2023-02-15T05:03:24;96472.25;;;-2.82;87.79
9225;BME280;4647;48.072;11.616;2023-02-15T05:05:52;96474.50;;;-2.89;88.42
9225;BME280;4647;48.072;11.616;2023-02-15T05:08:21;96476.09;;;-2.74;88.43
9225;BME280;4647;48.072;11.616;2023-02-15T05:10:52;96478.56;;;-2.78;88.47
9225;BME280;4647;48.072;11.616;2023-02-15T05:13:20;96459.00;;;-2.82;88.26
9225;BME280;4647;48.072;11.616;2023-02-15T05:15:49;96474.31;;;-2.65;87.94
9225;BME280;4647;48.072;11.616;2023-02-15T05:18:18;96477.44;;;-2.63;87.87
9225;BME280;4647;48.072;11.616;2023-02-15T05:20:48;96474.91;;;-2.68;87.57
9225;BME280;4647;48.072;11.616;2023-02-15T05:23:17;96481.19;;;-2.64;87.73
9225;BME280;4647;48.072;11.616;2023-02-15T05:25:48;96480.00;;;-2.99;87.86
9225;BME280;4647;48.072;11.616;2023-02-15T05:28:32;96471.16;;;-2.95;88.17
9225;BME280;4647;48.072;11.616;2023-02-15T05:31:03;96467.25;;;-2.70;87.58
9225;BME280;4647;48.072;11.616;2023-02-15T05:33:33;96468.13;;;-2.61;87.07
9225;BME280;4647;48.072;11.616;2023-02-15T05:36:03;96462.03;;;-2.75;87.14
9225;BME280;4647;48.072;11.616;2023-02-15T05:38:32;96477.16;;;-2.62;86.93
9225;BME280;4647;48.072;11.616;2023-02-15T05:41:02;96477.84;;;-2.70;87.14
9225;BME280;4647;48.072;11.616;2023-02-15T05:43:33;96480.91;;;-2.76;87.32
9225;BME280;4647;48.072;11.616;2023-02-15T05:46:03;96479.44;;;-2.55;87.23
9225;BME280;4647;48.072;11.616;2023-02-15T05:48:32;96477.94;;;-2.48;87.03
9225;BME280;4647;48.072;11.616;2023-02-15T05:51:04;96493.66;;;-2.37;86.99
9225;BME280;4647;48.072;11.616;2023-02-15T05:53:34;96495.84;;;-2.81;87.66
9225;BME280;4647;48.072;11.616;2023-02-15T05:56:04;96486.69;;;-2.88;88.29
9225;BME280;4647;48.072;11.616;2023-02-15T05:58:37;96491.34;;;-3.13;88.52
9225;BME280;4647;48.072;11.616;2023-02-15T06:01:11;96479.78;;;-3.17;89.32
9225;BME280;4647;48.072;11.616;2023-02-15T06:03:40;96483.38;;;-2.80;88.72
9225;BME280;4647;48.072;11.616;2023-02-15T06:06:09;96487.38;;;-2.55;88.48
9225;BME280;4647;48.072;11.616;2023-02-15T06:08:38;96498.69;;;-2.36;87.52
9225;BME280;4647;48.072;11.616;2023-02-15T06:11:06;96485.78;;;-2.29;87.30
9225;BME280;4647;48.072;11.616;2023-02-15T06:13:37;96492.06;;;-2.11;86.63
9225;BME280;4647;48.072;11.616;2023-02-15T06:16:06;96482.22;;;-2.10;86.34
9225;BME280;4647;48.072;11.616;2023-02-15T06:18:35;96490.59;;;-2.31;86.58
9225;BME280;4647;48.072;11.616;2023-02-15T06:21:03;96490.81;;;-2.41;86.51
9225;BME280;4647;48.072;11.616;2023-02-15T06:23:32;96487.16;;;-2.45;86.52
9225;BME280;4647;48.072;11.616;2023-02-15T06:26:01;96488.56;;;-2.34;86.11
9225;BME280;4647;48.072;11.616;2023-02-15T06:28:29;96490.81;;;-2.41;86.86
9225;BME280;4647;48.072;11.616;2023-02-15T06:31:00;96503.69;;;-2.48;87.31
9225;BME280;4647;48.072;11.616;2023-02-15T06:33:29;96501.44;;;-2.55;87.45
9225;BME280;4647;48.072;11.616;2023-02-15T06:35:59;96499.66;;;-2.73;87.54
9225;BME280;4647;48.072;11.616;2023-02-15T06:38:29;96494.75;;;-2.66;88.05
9225;BME280;4647;48.072;11.616;2023-02-15T06:40:57;96488.78;;;-2.58;87.45
9225;BME280;4647;48.072;11.616;2023-02-15T06:43:26;96497.31;;;-2.74;87.71
9225;BME280;4647;48.072;11.616;2023-02-15T06:45:54;96496.72;;;-2.58;87.28
9225;BME280;4647;48.072;11.616;2023-02-15T06:48:25;96505.34;;;-2.38;86.78
9225;BME280;4647;48.072;11.616;2023-02-15T06:50:54;96500.03;;;-2.38;86.07
9225;BME280;4647;48.072;11.616;2023-02-15T06:53:22;96506.22;;;-2.43;85.90
9225;BME280;4647;48.072;11.616;2023-02-15T06:55:50;96505.94;;;-2.41;85.78
9225;BME280;4647;48.072;11.616;2023-02-15T06:58:19;96511.75;;;-2.67;86.62
9225;BME280;4647;48.072;11.616;2023-02-15T07:00:47;96519.88;;;-2.63;86.50
9225;BME280;4647;48.072;11.616;2023-02-15T07:03:16;96514.88;;;-2.37;85.90
9225;BME280;4647;48.072;11.616;2023-02-15T07:05:47;96504.97;;;-2.32;85.30
9225;BME280;4647;48.072;11.616;2023-02-15T07:08:15;96517.63;;;-2.29;84.86
9225;BME280;4647;48.072;11.616;2023-02-15T07:10:45;96509.09;;;-2.53;85.66
9225;BME280;4647;48.072;11.616;2023-02-15T07:13:13;96510.38;;;-2.51;86.19
9225;BME280;4647;48.072;11.616;2023-02-15T07:15:39;96519.03;;;-2.31;85.54
9225;BME280;4647;48.072;11.616;2023-02-15T07:18:08;96509.19;;;-2.44;85.15
9225;BME280;4647;48.072;11.616;2023-02-15T07:20:37;96514.97;;;-2.42;84.66
9225;BME280;4647;48.072;11.616;2023-02-15T07:23:09;96515.00;;;-2.56;84.79
9225;BME280;4647;48.072;11.616;2023-02-15T07:25:38;96521.88;;;-2.28;84.36
9225;BME280;4647;48.072;11.616;2023-02-15T07:28:06;96514.56;;;-2.08;83.94
9225;BME280;4647;48.072;11.616;2023-02-15T07:30:34;96522.06;;;-2.24;84.43
9225;BME280;4647;48.072;11.616;2023-02-15T07:33:03;96516.06;;;-1.80;83.28
9225;BME280;4647;48.072;11.616;2023-02-15T07:35:47;96522.72;;;-1.69;82.85
9225;BME280;4647;48.072;11.616;2023-02-15T07:38:18;96505.97;;;-1.69;81.71
9225;BME280;4647;48.072;11.616;2023-02-15T07:40:47;96502.84;;;-2.07;82.18
9225;BME280;4647;48.072;11.616;2023-02-15T07:43:16;96503.47;;;-2.24;82.37
9225;BME280;4647;48.072;11.616;2023-02-15T07:45:44;96501.97;;;-2.17;83.13
9225;BME280;4647;48.072;11.616;2023-02-15T07:48:13;96499.72;;;-2.23;82.48
9225;BME280;4647;48.072;11.616;2023-02-15T07:50:41;96500.88;;;-2.02;81.54
9225;BME280;4647;48.072;11.616;2023-02-15T07:53:09;96488.16;;;-1.91;81.77
9225;BME280;4647;48.072;11.616;2023-02-15T07:55:40;96507.81;;;-1.78;81.82
9225;BME280;4647;48.072;11.616;2023-02-15T07:58:09;96500.84;;;-1.66;81.43
9225;BME280;4647;48.072;11.616;2023-02-15T08:00:37;96500.84;;;-1.88;81.45
9225;BME280;4647;48.072;11.616;2023-02-15T08:03:18;96496.84;;;-1.63;80.99
9225;BME280;4647;48.072;11.616;2023-02-15T08:05:46;96494.53;;;-1.92;81.53
9225;BME280;4647;48.072;11.616;2023-02-15T08:08:15;96496.25;;;-1.74;81.44
9225;BME280;4647;48.072;11.616;2023-02-15T08:11:02;96499.78;;;-1.87;81.61
9225;BME280;4647;48.072;11.616;2023-02-15T08:13:43;96489.22;;;-1.56;81.33
9225;BME280;4647;48.072;11.616;2023-02-15T08:16:20;96495.75;;;-1.40;80.56
9225;BME280;4647;48.072;11.616;2023-02-15T08:18:48;96486.31;;;-1.46;80.47
9225;BME280;4647;48.072;11.616;2023-02-15T08:21:17;96488.19;;;-1.46;81.49
9225;BME280;4647;48.072;11.616;2023-02-15T08:23:46;96483.63;;;-1.24;80.44
9225;BME280;4647;48.072;11.616;2023-02-15T08:26:18;96493.66;;;-1.20;80.18
9225;BME280;4647;48.072;11.616;2023-02-15T08:28:46;96490.63;;;-1.05;79.55
9225;BME280;4647;48.072;11.616;2023-02-15T08:31:16;96488.41;;;-0.81;78.94
9225;BME280;4647;48.072;11.616;2023-02-15T08:33:46;96488.84;;;-0.87;79.33
9225;BME280;4647;48.072;11.616;2023-02-15T08:36:16;96457.50;;;-0.99;79.62
9225;BME280;4647;48.072;11.616;2023-02-15T08:38:45;96459.53;;;-0.96;79.63
9225;BME280;4647;48.072;11.616;2023-02-15T08:41:18;96480.63;;;-0.69;79.27
9225;BME280;4647;48.072;11.616;2023-02-15T08:43:48;96481.44;;;-0.59;79.21
9225;BME280;4647;48.072;11.616;2023-02-15T08:46:20;96482.22;;;-0.68;79.09
9225;BME280;4647;48.072;11.616;2023-02-15T08:48:49;96477.63;;;-0.76;79.72
9225;BME280;4647;48.072;11.616;2023-02-15T08:51:19;96472.84;;;-0.56;79.77
9225;BME280;4647;48.072;11.616;2023-02-15T08:53:49;96476.66;;;-0.40;79.48
9225;BME280;4647;48.072;11.616;2023-02-15T08:56:23;96480.44;;;-0.24;79.13
9225;BME280;4647;48.072;11.616;2023-02-15T08:58:52;96471.66;;;-0.24;79.41
9225;BME280;4647;48.072;11.616;2023-02-15T09:01:23;96466.06;;;0.03;78.99
9225;BME280;4647;48.072;11.616;2023-02-15T09:03:55;96474.84;;;0.29;78.22
9225;BME280;4647;48.072;11.616;2023-02-15T09:06:25;96470.63;;;0.54;77.92
9225;BME280;4647;48.072;11.616;2023-02-15T09:08:54;96469.03;;;0.62;77.07
9225;BME280;4647;48.072;11.616;2023-02-15T09:11:27;96476.88;;;0.58;77.38
9225;BME280;4647;48.072;11.616;2023-02-15T09:13:57;96478.91;;;0.61;77.39
9225;BME280;4647;48.072;11.616;2023-02-15T09:16:28;96472.13;;;0.81;77.24
9225;BME280;4647;48.072;11.616;2023-02-15T09:18:57;96474.78;;;0.90;77.35
9225;BME280;4647;48.072;11.616;2023-02-15T09:21:27;96481.88;;;0.77;77.39
9225;BME280;4647;48.072;11.616;2023-02-15T09:23:58;96480.75;;;0.70;77.83
9225;BME280;4647;48.072;11.616;2023-02-15T09:26:30;96469.94;;;0.83;77.65
9225;BME280;4647;48.072;11.616;2023-02-15T09:29:00;96477.22;;;1.12;77.25
9225;BME280;4647;48.072;11.616;2023-02-15T09:31:30;96448.88;;;0.99;77.18
9225;BME280;4647;48.072;11.616;2023-02-15T09:34:00;96474.22;;;1.22;76.82
9225;BME280;4647;48.072;11.616;2023-02-15T09:36:33;96457.34;;;0.92;77.93
9225;BME280;4647;48.072;11.616;2023-02-15T09:39:06;96474.41;;;1.09;78.67
9225;BME280;4647;48.072;11.616;2023-02-15T09:42:04;96481.03;;;1.41;77.93
9225;BME280;4647;48.072;11.616;2023-02-15T09:44:50;96472.41;;;1.44;77.96
9225;BME280;4647;48.072;11.616;2023-02-15T09:47:37;96476.84;;;1.69;78.26
9225;BME280;4647;48.072;11.616;2023-02-15T09:50:15;96484.78;;;1.78;77.49
9225;BME280;4647;48.072;11.616;2023-02-15T09:53:00;96481.38;;;1.98;77.18
9225;BME280;4647;48.072;11.616;2023-02-15T09:55:46;96482.03;;;2.16;76.11
9225;BME280;4647;48.072;11.616;2023-02-15T09:58:26;96475.97;;;2.07;75.79
9225;BME280;4647;48.072;11.616;2023-02-15T10:01:04;96478.06;;;2.22;75.76
9225;BME280;4647;48.072;11.616;2023-02-15T10:03:43;96475.06;;;2.44;75.42
9225;BME280;4647;48.072;11.616;2023-02-15T10:06:35;96469.91;;;2.60;75.06
9225;BME280;4647;48.072;11.616;2023-02-15T10:09:30;96473.63;;;2.80;74.50
9225;BME280;4647;48.072;11.616;2023-02-15T10:12:15;96472.56;;;3.05;73.65
9225;BME280;4647;48.072;11.616;2023-02-15T10:15:09;96469.25;;;3.21;72.92
9225;BME280;4647;48.072;11.616;2023-02-15T10:17:51;96464.72;;;3.33;72.03
9225;BME280;4647;48.072;11.616;2023-02-15T10:20:29;96466.19;;;3.55;71.87
9225;BME280;4647;48.072;11.616;2023-02-15T10:23:25;96454.13;;;3.61;71.48
9225;BME280;4647;48.072;11.616;2023-02-15T10:26:05;96460.69;;;3.88;70.69
9225;BME280;4647;48.072;11.616;2023-02-15T10:28:42;96462.38;;;3.68;71.76
9225;BME280;4647;48.072;11.616;2023-02-15T10:31:22;96459.00;;;3.96;70.73
9225;BME280;4647;48.072;11.616;2023-02-15T10:34:04;96455.97;;;4.10;70.84
9225;BME280;4647;48.072;11.616;2023-02-15T10:39:36;96451.63;;;4.05;71.74
9225;BME280;4647;48.072;11.616;2023-02-15T10:42:17;96456.16;;;4.29;70.26
9225;BME280;4647;48.072;11.616;2023-02-15T10:45:03;96439.22;;;4.41;69.91
9225;BME280;4647;48.072;11.616;2023-02-15T10:47:48;96447.94;;;4.38;69.84
9225;BME280;4647;48.072;11.616;2023-02-15T10:50:29;96439.22;;;4.41;70.32
9225;BME280;4647;48.072;11.616;2023-02-15T10:53:11;96436.84;;;4.51;70.66
9225;BME280;4647;48.072;11.616;2023-02-15T10:55:51;96439.97;;;4.53;70.40
9225;BME280;4647;48.072;11.616;2023-02-15T10:58:31;96436.53;;;4.69;69.83
9225;BME280;4647;48.072;11.616;2023-02-15T11:01:07;96425.09;;;5.00;69.71
9225;BME280;4647;48.072;11.616;2023-02-15T11:03:47;96427.84;;;5.03;69.12
9225;BME280;4647;48.072;11.616;2023-02-15T11:06:25;96420.38;;;4.81;69.77
9225;BME280;4647;48.072;11.616;2023-02-15T11:08:59;96415.59;;;4.90;69.57
9225;BME280;4647;48.072;11.616;2023-02-15T11:11:32;96418.66;;;5.04;69.34
9225;BME280;4647;48.072;11.616;2023-02-15T11:14:12;96382.19;;;4.87;69.13
9225;BME280;4647;48.072;11.616;2023-02-15T11:16:45;96417.28;;;5.26;68.76
9225;BME280;4647;48.072;11.616;2023-02-15T11:19:20;96412.31;;;5.44;67.57
9225;BME280;4647;48.072;11.616;2023-02-15T11:21:54;96403.38;;;5.55;67.11
9225;BME280;4647;48.072;11.616;2023-02-15T11:24:28;96406.75;;;5.68;66.71
9225;BME280;4647;48.072;11.616;2023-02-15T11:27:03;96391.13;;;5.74;67.29
9225;BME280;4647;48.072;11.616;2023-02-15T11:29:36;96386.19;;;5.92;66.90
9225;BME280;4647;48.072;11.616;2023-02-15T11:32:14;96391.41;;;6.04;66.90
9225;BME280;4647;48.072;11.616;2023-02-15T11:34:51;96389.38;;;6.17;66.53
9225;BME280;4647;48.072;11.616;2023-02-15T11:37:29;96388.31;;;6.21;65.96
9225;BME280;4647;48.072;11.616;2023-02-15T11:40:02;96386.00;;;6.39;65.71
9225;BME280;4647;48.072;11.616;2023-02-15T11:42:31;96379.38;;;6.56;65.25
9225;BME280;4647;48.072;11.616;2023-02-15T11:45:06;96368.03;;;6.66;65.02
9225;BME280;4647;48.072;11.616;2023-02-15T11:47:43;96364.97;;;6.67;65.23
9225;BME280;4647;48.072;11.616;2023-02-15T11:50:19;96356.53;;;6.69;65.16
9225;BME280;4647;48.072;11.616;2023-02-15T11:52:48;96363.03;;;6.87;64.83
9225;BME280;4647;48.072;11.616;2023-02-15T11:55:20;96360.56;;;6.78;65.10
9225;BME280;4647;48.072;11.616;2023-02-15T11:57:53;96355.13;;;6.98;63.92
9225;BME280;4647;48.072;11.616;2023-02-15T12:00:31;96357.84;;;7.24;61.86
9225;BME280;4647;48.072;11.616;2023-02-15T12:03:08;96348.94;;;7.47;60.78
9225;BME280;4647;48.072;11.616;2023-02-15T12:05:45;96340.75;;;7.66;60.42
9225;BME280;4647;48.072;11.616;2023-02-15T12:08:17;96343.53;;;7.73;59.35
9225;BME280;4647;48.072;11.616;2023-02-15T12:10:57;96341.16;;;7.68;59.19
9225;BME280;4647;48.072;11.616;2023-02-15T12:13:26;96331.84;;;7.92;58.48
9225;BME280;4647;48.072;11.616;2023-02-15T12:15:57;96333.66;;;7.81;58.30
9225;BME280;4647;48.072;11.616;2023-02-15T12:18:34;96325.44;;;8.04;57.31
9225;BME280;4647;48.072;11.616;2023-02-15T12:21:09;96327.72;;;8.01;57.56
9225;BME280;4647;48.072;11.616;2023-02-15T12:23:43;96322.50;;;8.16;56.69
9225;BME280;4647;48.072;11.616;2023-02-15T12:26:23;96323.88;;;8.02;56.49
9225;BME280;4647;48.072;11.616;2023-02-15T12:28:52;96322.69;;;8.00;56.27
9225;BME280;4647;48.072;11.616;2023-02-15T12:31:26;96321.03;;;8.22;55.71
9225;BME280;4647;48.072;11.616;2023-02-15T12:33:57;96326.44;;;8.22;55.74
9225;BME280;4647;48.072;11.616;2023-02-15T12:36:32;96311.00;;;8.52;54.27
9225;BME280;4647;48.072;11.616;2023-02-15T12:39:16;96312.56;;;8.57;54.07
9225;BME280;4647;48.072;11.616;2023-02-15T12:41:57;96306.13;;;8.69;53.45
9225;BME280;4647;48.072;11.616;2023-02-15T12:44:28;96304.00;;;8.92;53.04
9225;BME280;4647;48.072;11.616;2023-02-15T12:46:59;96301.69;;;8.90;53.27
9225;BME280;4647;48.072;11.616;2023-02-15T12:49:29;96306.47;;;9.11;52.91
9225;BME280;4647;48.072;11.616;2023-02-15T12:52:02;96293.69;;;9.05;53.05
9225;BME280;4647;48.072;11.616;2023-02-15T12:54:34;96295.66;;;9.11;53.30
9225;BME280;4647;48.072;11.616;2023-02-15T12:57:23;96290.72;;;9.20;53.87
9225;BME280;4647;48.072;11.616;2023-02-15T12:59:54;96287.16;;;9.09;53.90
9225;BME280;4647;48.072;11.616;2023-02-15T13:02:26;96281.00;;;9.12;54.06
9225;BME280;4647;48.072;11.616;2023-02-15T13:04:56;96284.63;;;9.34;54.73
9225;BME280;4647;48.072;11.616;2023-02-15T13:07:30;96281.78;;;9.16;55.71
9225;BME280;4647;48.072;11.616;2023-02-15T13:09:59;96277.63;;;9.26;55.52
9225;BME280;4647;48.072;11.616;2023-02-15T13:12:29;96272.22;;;9.26;54.87
9225;BME280;4647;48.072;11.616;2023-02-15T13:14:59;96281.88;;;9.27;54.74
9225;BME280;4647;48.072;11.616;2023-02-15T13:17:31;96260.66;;;9.33;55.05
9225;BME280;4647;48.072;11.616;2023-02-15T13:20:04;96268.38;;;9.31;55.28
9225;BME280;4647;48.072;11.616;2023-02-15T13:22:39;96266.47;;;9.35;56.27
9225;BME280;4647;48.072;11.616;2023-02-15T13:25:14;96261.84;;;9.39;56.72
9225;BME280;4647;48.072;11.616;2023-02-15T13:27:46;96261.09;;;9.38;56.99
9225;BME280;4647;48.072;11.616;2023-02-15T13:30:23;96256.75;;;9.23;57.40
9225;BME280;4647;48.072;11.616;2023-02-15T13:32:56;96257.22;;;9.36;57.46
9225;BME280;4647;48.072;11.616;2023-02-15T13:35:36;96254.50;;;9.36;57.42
9225;BME280;4647;48.072;11.616;2023-02-15T13:38:16;96182.72;;;8.80;57.96
9225;BME280;4647;48.072;11.616;2023-02-15T13:40:53;96260.28;;;9.31;57.67
9225;BME280;4647;48.072;11.616;2023-02-15T13:43:35;96252.91;;;9.24;57.70
9225;BME280;4647;48.072;11.616;2023-02-15T13:46:21;96256.53;;;9.49;57.76
9225;BME280;4647;48.072;11.616;2023-02-15T13:49:00;96257.31;;;9.50;57.55
9225;BME280;4647;48.072;11.616;2023-02-15T13:51:38;96256.44;;;9.35;58.31